sensor_id;sensor_type;location;lat;lon;timestamp;temperature;humidity
19279;DHT22;9773;47.062;15.446;2023-02-28T00:00:31;2.10;86.00
19279;DHT22;9773;47.062;15.446;2023-02-28T00:02:57;2.20;86.00
19279;DHT22;9773;47.062;15.446;2023-02-28T00:05:25;2.20;86.70
19279;DHT22;9773;47.062;15.446;2023-02-28T00:07:51;2.20;87.20
19279;DHT22;9773;47.062;15.446;2023-02-28T00:10:28;2.30;87.80
19279;DHT22;9773;47.062;15.446;2023-02-28T00:12:58;2.20;87.60
19279;DHT22;9773;47.062;15.446;2023-02-28T00:15:25;2.20;87.50
19279;DHT22;9773;47.062;15.446;2023-02-28T00:17:51;2.30;87.80
19279;DHT22;9773;47.062;15.446;2023-02-28T00:20:17;2.20;88.30
19279;DHT22;9773;47.062;15.446;2023-02-28T00:22:48;2.30;88.30
19279;DHT22;9773;47.062;15.446;2023-02-28T00:25:20;2.30;87.20
19279;DHT22;9773;47.062;15.446;2023-02-28T00:27:46;2.20;86.90
19279;DHT22;9773;47.062;15.446;2023-02-28T00:30:15;2.10;87.40
19279;DHT22;9773;47.062;15.446;2023-02-28T00:32:41;2.20;87.60
19279;DHT22;9773;47.062;15.446;2023-02-28T00:35:08;2.20;87.20
19279;DHT22;9773;47.062;15.446;2023-02-28T00:37:34;2.30;88.30
19279;DHT22;9773;47.062;15.446;2023-02-28T00:40:00;2.20;88.40
19279;DHT22;9773;47.062;15.446;2023-02-28T00:42:27;2.30;88.90
19279;DHT22;9773;47.062;15.446;2023-02-28T00:44:53;2.30;88.40
19279;DHT22;9773;47.062;15.446;2023-02-28T00:47:20;2.30;88.60
19279;DHT22;9773;47.062;15.446;2023-02-28T00:49:45;2.30;88.50
19279;DHT22;9773;47.062;15.446;2023-02-28T00:52:11;2.30;88.40
19279;DHT22;9773;47.062;15.446;2023-02-28T00:54:37;2.30;88.10
19279;DHT22;9773;47.062;15.446;2023-02-28T00:57:03;2.30;88.00
19279;DHT22;9773;47.062;15.446;2023-02-28T00:59:28;2.40;86.20
19279;DHT22;9773;47.062;15.446;2023-02-28T01:01:54;2.30;85.70
19279;DHT22;9773;47.062;15.446;2023-02-28T01:04:20;2.30;85.90
19279;DHT22;9773;47.062;15.446;2023-02-28T01:06:46;2.30;86.20
19279;DHT22;9773;47.062;15.446;2023-02-28T01:09:11;2.30;86.00
19279;DHT22;9773;47.062;15.446;2023-02-28T01:11:37;2.30;86.00
19279;DHT22;9773;47.062;15.446;2023-02-28T01:14:04;2.20;86.30
19279;DHT22;9773;47.062;15.446;2023-02-28T01:16:30;2.20;86.00
19279;DHT22;9773;47.062;15.446;2023-02-28T01:18:56;2.10;86.90
19279;DHT22;9773;47.062;15.446;2023-02-28T01:21:22;2.10;87.20
19279;DHT22;9773;47.062;15.446;2023-02-28T01:23:49;2.00;86.90
19279;DHT22;9773;47.062;15.446;2023-02-28T01:26:20;1.90;87.40
19279;DHT22;9773;47.062;15.446;2023-02-28T01:28:48;1.90;87.40
19279;DHT22;9773;47.062;15.446;2023-02-28T01:31:14;1.90;87.60
19279;DHT22;9773;47.062;15.446;2023-02-28T01:33:40;1.90;87.70
19279;DHT22;9773;47.062;15.446;2023-02-28T01:36:16;1.80;87.60
19279;DHT22;9773;47.062;15.446;2023-02-28T01:38:43;1.80;87.80
19279;DHT22;9773;47.062;15.446;2023-02-28T01:41:18;1.80;88.00
19279;DHT22;9773;47.062;15.446;2023-02-28T01:46:11;1.80;88.50
19279;DHT22;9773;47.062;15.446;2023-02-28T01:48:42;1.90;88.40
19279;DHT22;9773;47.062;15.446;2023-02-28T01:51:17;1.90;88.00
19279;DHT22;9773;47.062;15.446;2023-02-28T01:53:47;2.10;87.80
19279;DHT22;9773;47.062;15.446;2023-02-28T01:56:18;2.00;87.80
19279;DHT22;9773;47.062;15.446;2023-02-28T01:58:51;2.00;87.90
19279;DHT22;9773;47.062;15.446;2023-02-28T02:01:17;2.00;87.50
19279;DHT22;9773;47.062;15.446;2023-02-28T02:03:51;2.00;87.90
19279;DHT22;9773;47.062;15.446;2023-02-28T02:06:25;1.90;87.70
19279;DHT22;9773;47.062;15.446;2023-02-28T02:08:53;2.00;88.50
19279;DHT22;9773;47.062;15.446;2023-02-28T02:11:21;2.10;88.50
19279;DHT22;9773;47.062;15.446;2023-02-28T02:13:54;2.10;89.70
19279;DHT22;9773;47.062;15.446;2023-02-28T02:24:37;2.20;90.50
19279;DHT22;9773;47.062;15.446;2023-02-28T02:35:27;2.30;90.60
19279;DHT22;9773;47.062;15.446;2023-02-28T02:38:04;2.40;90.70
19279;DHT22;9773;47.062;15.446;2023-02-28T02:40:43;2.30;90.50
19279;DHT22;9773;47.062;15.446;2023-02-28T02:43:58;2.20;90.40
19279;DHT22;9773;47.062;15.446;2023-02-28T02:46:36;2.30;90.70
19279;DHT22;9773;47.062;15.446;2023-02-28T02:49:07;2.40;90.50
19279;DHT22;9773;47.062;15.446;2023-02-28T02:51:36;2.30;90.30
19279;DHT22;9773;47.062;15.446;2023-02-28T02:54:23;2.30;90.50
19279;DHT22;9773;47.062;15.446;2023-02-28T02:56:55;2.30;90.50
19279;DHT22;9773;47.062;15.446;2023-02-28T02:59:24;2.30;90.70
19279;DHT22;9773;47.062;15.446;2023-02-28T03:01:52;2.30;90.50
19279;DHT22;9773;47.062;15.446;2023-02-28T03:04:23;2.40;90.40
19279;DHT22;9773;47.062;15.446;2023-02-28T03:06:51;2.30;90.60
19279;DHT22;9773;47.062;15.446;2023-02-28T03:09:24;2.30;90.70
19279;DHT22;9773;47.062;15.446;2023-02-28T03:11:52;2.20;90.60
19279;DHT22;9773;47.062;15.446;2023-02-28T03:23:02;2.20;90.90
19279;DHT22;9773;47.062;15.446;2023-02-28T03:25:59;2.30;91.20
19279;DHT22;9773;47.062;15.446;2023-02-28T03:28:51;2.20;91.10
19279;DHT22;9773;47.062;15.446;2023-02-28T03:31:37;2.20;90.80
19279;DHT22;9773;47.062;15.446;2023-02-28T03:34:12;2.20;90.90
19279;DHT22;9773;47.062;15.446;2023-02-28T03:36:42;2.20;91.00
19279;DHT22;9773;47.062;15.446;2023-02-28T03:39:53;2.20;91.30
19279;DHT22;9773;47.062;15.446;2023-02-28T03:42:19;2.30;91.30
19279;DHT22;9773;47.062;15.446;2023-02-28T03:44:58;2.20;91.00
19279;DHT22;9773;47.062;15.446;2023-02-28T03:47:32;2.30;91.20
19279;DHT22;9773;47.062;15.446;2023-02-28T03:50:09;2.30;90.90
19279;DHT22;9773;47.062;15.446;2023-02-28T03:52:42;2.40;91.10
19279;DHT22;9773;47.062;15.446;2023-02-28T03:55:13;2.40;90.90
19279;DHT22;9773;47.062;15.446;2023-02-28T03:57:43;2.40;90.90
19279;DHT22;9773;47.062;15.446;2023-02-28T04:00:19;2.30;90.70
19279;DHT22;9773;47.062;15.446;2023-02-28T04:02:45;2.30;91.00
19279;DHT22;9773;47.062;15.446;2023-02-28T04:05:11;2.30;91.10
19279;DHT22;9773;47.062;15.446;2023-02-28T04:07:37;2.30;91.00
19279;DHT22;9773;47.062;15.446;2023-02-28T04:10:04;2.40;91.00
19279;DHT22;9773;47.062;15.446;2023-02-28T04:12:30;2.40;90.70
19279;DHT22;9773;47.062;15.446;2023-02-28T04:14:55;2.40;90.40
19279;DHT22;9773;47.062;15.446;2023-02-28T04:17:21;2.30;90.60
19279;DHT22;9773;47.062;15.446;2023-02-28T04:19:47;2.20;90.40
19279;DHT22;9773;47.062;15.446;2023-02-28T04:22:13;2.30;90.70
19279;DHT22;9773;47.062;15.446;2023-02-28T04:24:39;2.30;90.40
19279;DHT22;9773;47.062;15.446;2023-02-28T04:27:08;2.30;90.80
19279;DHT22;9773;47.062;15.446;2023-02-28T04:29:34;2.20;90.70
19279;DHT22;9773;47.062;15.446;2023-02-28T04:32:01;2.20;90.60
19279;DHT22;9773;47.062;15.446;2023-02-28T04:34:29;2.30;90.80
19279;DHT22;9773;47.062;15.446;2023-02-28T04:36:56;2.20;90.50
19279;DHT22;9773;47.062;15.446;2023-02-28T04:39:23;2.20;90.40
19279;DHT22;9773;47.062;15.446;2023-02-28T04:41:50;2.20;90.20
19279;DHT22;9773;47.062;15.446;2023-02-28T04:44:15;2.30;90.30
19279;DHT22;9773;47.062;15.446;2023-02-28T04:46:42;2.20;89.90
19279;DHT22;9773;47.062;15.446;2023-02-28T04:49:11;2.20;90.10
19279;DHT22;9773;47.062;15.446;2023-02-28T04:51:37;2.20;90.20
19279;DHT22;9773;47.062;15.446;2023-02-28T04:54:03;2.20;90.40
19279;DHT22;9773;47.062;15.446;2023-02-28T04:56:29;2.20;90.10
19279;DHT22;9773;47.062;15.446;2023-02-28T04:58:55;2.20;90.10
19279;DHT22;9773;47.062;15.446;2023-02-28T05:01:29;2.20;90.10
19279;DHT22;9773;47.062;15.446;2023-02-28T05:03:57;2.20;90.20
19279;DHT22;9773;47.062;15.446;2023-02-28T05:06:25;2.30;90.10
19279;DHT22;9773;47.062;15.446;2023-02-28T05:08:51;2.30;90.10
19279;DHT22;9773;47.062;15.446;2023-02-28T05:11:23;2.20;90.20
19279;DHT22;9773;47.062;15.446;2023-02-28T05:13:50;2.20;90.30
19279;DHT22;9773;47.062;15.446;2023-02-28T05:16:17;2.20;90.20
19279;DHT22;9773;47.062;15.446;2023-02-28T05:18:43;2.20;90.20
19279;DHT22;9773;47.062;15.446;2023-02-28T05:21:36;2.20;90.30
19279;DHT22;9773;47.062;15.446;2023-02-28T05:24:11;2.20;90.20
19279;DHT22;9773;47.062;15.446;2023-02-28T05:26:40;2.00;90.20
19279;DHT22;9773;47.062;15.446;2023-02-28T05:29:06;1.80;90.40
19279;DHT22;9773;47.062;15.446;2023-02-28T05:31:32;2.00;90.60
19279;DHT22;9773;47.062;15.446;2023-02-28T05:33:58;2.00;90.50
19279;DHT22;9773;47.062;15.446;2023-02-28T05:36:24;1.90;90.50
19279;DHT22;9773;47.062;15.446;2023-02-28T05:38:50;1.80;90.50
19279;DHT22;9773;47.062;15.446;2023-02-28T05:41:17;1.60;90.70
19279;DHT22;9773;47.062;15.446;2023-02-28T05:43:45;1.80;91.00
19279;DHT22;9773;47.062;15.446;2023-02-28T05:46:11;1.90;90.80
19279;DHT22;9773;47.062;15.446;2023-02-28T05:48:39;1.90;90.80
19279;DHT22;9773;47.062;15.446;2023-02-28T05:51:06;1.90;90.70
19279;DHT22;9773;47.062;15.446;2023-02-28T05:53:32;1.80;90.90
19279;DHT22;9773;47.062;15.446;2023-02-28T05:55:58;1.90;90.90
19279;DHT22;9773;47.062;15.446;2023-02-28T05:58:25;2.00;90.80
19279;DHT22;9773;47.062;15.446;2023-02-28T06:00:54;2.10;90.70
19279;DHT22;9773;47.062;15.446;2023-02-28T06:03:20;2.10;90.60
19279;DHT22;9773;47.062;15.446;2023-02-28T06:05:46;2.10;90.80
19279;DHT22;9773;47.062;15.446;2023-02-28T06:08:12;2.10;90.70
19279;DHT22;9773;47.062;15.446;2023-02-28T06:10:38;2.10;90.60
19279;DHT22;9773;47.062;15.446;2023-02-28T06:13:04;2.10;90.70
19279;DHT22;9773;47.062;15.446;2023-02-28T06:15:31;2.20;90.80
19279;DHT22;9773;47.062;15.446;2023-02-28T06:17:57;2.10;90.80
19279;DHT22;9773;47.062;15.446;2023-02-28T06:20:25;2.10;90.80
19279;DHT22;9773;47.062;15.446;2023-02-28T06:22:51;2.10;90.80
19279;DHT22;9773;47.062;15.446;2023-02-28T06:25:19;2.10;90.80
19279;DHT22;9773;47.062;15.446;2023-02-28T06:27:45;2.10;90.90
19279;DHT22;9773;47.062;15.446;2023-02-28T06:30:15;2.10;90.90
19279;DHT22;9773;47.062;15.446;2023-02-28T06:32:40;2.10;90.70
19279;DHT22;9773;47.062;15.446;2023-02-28T06:35:06;1.90;91.00
19279;DHT22;9773;47.062;15.446;2023-02-28T06:37:32;1.90;91.00
19279;DHT22;9773;47.062;15.446;2023-02-28T06:39:58;2.00;91.10
19279;DHT22;9773;47.062;15.446;2023-02-28T06:42:24;2.00;91.00
19279;DHT22;9773;47.062;15.446;2023-02-28T06:44:56;1.80;91.10
19279;DHT22;9773;47.062;15.446;2023-02-28T06:47:22;1.80;91.20
19279;DHT22;9773;47.062;15.446;2023-02-28T06:49:48;1.80;91.20
19279;DHT22;9773;47.062;15.446;2023-02-28T06:52:14;1.90;91.40
19279;DHT22;9773;47.062;15.446;2023-02-28T06:54:41;2.00;91.30
19279;DHT22;9773;47.062;15.446;2023-02-28T06:57:07;2.10;91.40
19279;DHT22;9773;47.062;15.446;2023-02-28T06:59:32;2.20;91.40
19279;DHT22;9773;47.062;15.446;2023-02-28T07:01:58;2.30;91.30
19279;DHT22;9773;47.062;15.446;2023-02-28T07:04:24;2.20;91.20
19279;DHT22;9773;47.062;15.446;2023-02-28T07:06:50;2.20;91.00
19279;DHT22;9773;47.062;15.446;2023-02-28T07:09:15;2.10;91.30
19279;DHT22;9773;47.062;15.446;2023-02-28T07:11:41;2.20;91.30
19279;DHT22;9773;47.062;15.446;2023-02-28T07:14:08;2.20;91.20
19279;DHT22;9773;47.062;15.446;2023-02-28T07:16:35;2.20;91.50
19279;DHT22;9773;47.062;15.446;2023-02-28T07:19:01;2.40;93.10
19279;DHT22;9773;47.062;15.446;2023-02-28T07:21:26;2.50;92.50
19279;DHT22;9773;47.062;15.446;2023-02-28T07:23:52;2.60;91.40
19279;DHT22;9773;47.062;15.446;2023-02-28T07:26:19;2.60;91.60
19279;DHT22;9773;47.062;15.446;2023-02-28T07:28:47;2.50;91.70
19279;DHT22;9773;47.062;15.446;2023-02-28T07:31:14;2.50;92.80
19279;DHT22;9773;47.062;15.446;2023-02-28T07:33:40;2.50;92.60
19279;DHT22;9773;47.062;15.446;2023-02-28T07:36:08;2.40;92.40
19279;DHT22;9773;47.062;15.446;2023-02-28T07:38:36;2.50;92.70
19279;DHT22;9773;47.062;15.446;2023-02-28T07:41:03;2.50;93.10
19279;DHT22;9773;47.062;15.446;2023-02-28T07:43:32;2.60;93.00
19279;DHT22;9773;47.062;15.446;2023-02-28T07:46:07;2.60;92.80
19279;DHT22;9773;47.062;15.446;2023-02-28T07:48:33;2.80;92.70
19279;DHT22;9773;47.062;15.446;2023-02-28T07:50:59;2.80;92.20
19279;DHT22;9773;47.062;15.446;2023-02-28T07:53:26;2.80;92.40
19279;DHT22;9773;47.062;15.446;2023-02-28T07:55:56;2.80;92.40
19279;DHT22;9773;47.062;15.446;2023-02-28T07:58:22;2.70;92.00
19279;DHT22;9773;47.062;15.446;2023-02-28T08:00:48;2.80;92.10
19279;DHT22;9773;47.062;15.446;2023-02-28T08:03:14;2.70;91.40
19279;DHT22;9773;47.062;15.446;2023-02-28T08:05:40;2.50;91.80
19279;DHT22;9773;47.062;15.446;2023-02-28T08:08:07;2.50;91.70
19279;DHT22;9773;47.062;15.446;2023-02-28T08:10:33;2.50;92.30
19279;DHT22;9773;47.062;15.446;2023-02-28T08:12:59;2.60;91.70
19279;DHT22;9773;47.062;15.446;2023-02-28T08:15:25;2.70;92.30
19279;DHT22;9773;47.062;15.446;2023-02-28T08:17:51;2.80;93.30
19279;DHT22;9773;47.062;15.446;2023-02-28T08:20:17;2.90;91.80
19279;DHT22;9773;47.062;15.446;2023-02-28T08:22:42;2.90;91.70
19279;DHT22;9773;47.062;15.446;2023-02-28T08:25:10;3.00;92.10
19279;DHT22;9773;47.062;15.446;2023-02-28T08:27:36;2.90;91.50
19279;DHT22;9773;47.062;15.446;2023-02-28T08:30:02;3.00;91.80
19279;DHT22;9773;47.062;15.446;2023-02-28T08:32:28;3.00;91.70
19279;DHT22;9773;47.062;15.446;2023-02-28T08:34:54;3.10;91.70
19279;DHT22;9773;47.062;15.446;2023-02-28T08:37:20;3.10;91.60
19279;DHT22;9773;47.062;15.446;2023-02-28T08:39:45;3.10;91.70
19279;DHT22;9773;47.062;15.446;2023-02-28T08:42:11;3.30;91.70
19279;DHT22;9773;47.062;15.446;2023-02-28T08:44:37;3.40;91.40
19279;DHT22;9773;47.062;15.446;2023-02-28T08:47:03;3.30;91.20
19279;DHT22;9773;47.062;15.446;2023-02-28T08:49:29;3.30;91.30
19279;DHT22;9773;47.062;15.446;2023-02-28T08:51:54;3.40;90.80
19279;DHT22;9773;47.062;15.446;2023-02-28T08:54:22;3.30;90.80
19279;DHT22;9773;47.062;15.446;2023-02-28T08:56:48;3.30;91.10
19279;DHT22;9773;47.062;15.446;2023-02-28T08:59:14;3.20;91.40
19279;DHT22;9773;47.062;15.446;2023-02-28T09:01:41;3.40;91.30
19279;DHT22;9773;47.062;15.446;2023-02-28T09:04:07;3.50;91.10
19279;DHT22;9773;47.062;15.446;2023-02-28T09:06:34;3.60;91.20
19279;DHT22;9773;47.062;15.446;2023-02-28T09:09:00;3.70;91.00
19279;DHT22;9773;47.062;15.446;2023-02-28T09:11:27;3.70;90.60
19279;DHT22;9773;47.062;15.446;2023-02-28T09:13:53;3.60;90.40
19279;DHT22;9773;47.062;15.446;2023-02-28T09:16:21;3.50;90.70
19279;DHT22;9773;47.062;15.446;2023-02-28T09:18:47;3.50;90.60
19279;DHT22;9773;47.062;15.446;2023-02-28T09:21:15;3.50;90.70
19279;DHT22;9773;47.062;15.446;2023-02-28T09:23:42;3.60;90.70
19279;DHT22;9773;47.062;15.446;2023-02-28T09:26:14;3.60;90.80
19279;DHT22;9773;47.062;15.446;2023-02-28T09:28:40;3.60;90.70
19279;DHT22;9773;47.062;15.446;2023-02-28T09:31:05;3.70;90.40
19279;DHT22;9773;47.062;15.446;2023-02-28T09:33:31;3.80;90.60
19279;DHT22;9773;47.062;15.446;2023-02-28T09:35:59;3.80;90.10
19279;DHT22;9773;47.062;15.446;2023-02-28T09:38:26;4.00;90.70
19279;DHT22;9773;47.062;15.446;2023-02-28T09:40:56;4.00;90.40
19279;DHT22;9773;47.062;15.446;2023-02-28T09:43:26;4.20;90.40
19279;DHT22;9773;47.062;15.446;2023-02-28T09:46:08;4.20;90.60
19279;DHT22;9773;47.062;15.446;2023-02-28T09:48:41;4.10;90.00
19279;DHT22;9773;47.062;15.446;2023-02-28T09:51:33;4.10;90.70
19279;DHT22;9773;47.062;15.446;2023-02-28T09:54:01;4.20;90.80
19279;DHT22;9773;47.062;15.446;2023-02-28T09:56:32;4.40;90.80
19279;DHT22;9773;47.062;15.446;2023-02-28T09:59:00;4.60;90.20
19279;DHT22;9773;47.062;15.446;2023-02-28T10:01:39;4.50;89.70
19279;DHT22;9773;47.062;15.446;2023-02-28T10:04:46;4.60;89.50
19279;DHT22;9773;47.062;15.446;2023-02-28T10:07:41;4.80;90.00
19279;DHT22;9773;47.062;15.446;2023-02-28T10:10:09;4.90;90.20
19279;DHT22;9773;47.062;15.446;2023-02-28T10:12:41;4.90;89.10
19279;DHT22;9773;47.062;15.446;2023-02-28T10:15:14;5.00;89.70
19279;DHT22;9773;47.062;15.446;2023-02-28T10:17:43;5.10;89.60
19279;DHT22;9773;47.062;15.446;2023-02-28T10:20:13;5.20;89.60
19279;DHT22;9773;47.062;15.446;2023-02-28T10:23:00;5.30;90.00
19279;DHT22;9773;47.062;15.446;2023-02-28T10:25:34;5.30;88.20
19279;DHT22;9773;47.062;15.446;2023-02-28T10:28:20;5.10;89.10
19279;DHT22;9773;47.062;15.446;2023-02-28T10:30:49;5.20;89.20
19279;DHT22;9773;47.062;15.446;2023-02-28T10:33:34;5.20;88.50
19279;DHT22;9773;47.062;15.446;2023-02-28T10:36:01;5.30;87.90
19279;DHT22;9773;47.062;15.446;2023-02-28T10:38:33;5.40;88.50
19279;DHT22;9773;47.062;15.446;2023-02-28T10:43:31;5.50;88.30
19279;DHT22;9773;47.062;15.446;2023-02-28T10:46:13;5.60;88.70
19279;DHT22;9773;47.062;15.446;2023-02-28T10:48:47;5.60;88.50
19279;DHT22;9773;47.062;15.446;2023-02-28T10:51:18;5.70;88.40
19279;DHT22;9773;47.062;15.446;2023-02-28T10:53:52;5.80;88.60
19279;DHT22;9773;47.062;15.446;2023-02-28T10:56:21;6.00;88.70
19279;DHT22;9773;47.062;15.446;2023-02-28T10:59:05;6.00;88.10
19279;DHT22;9773;47.062;15.446;2023-02-28T11:01:48;6.10;88.50
19279;DHT22;9773;47.062;15.446;2023-02-28T11:07:04;6.10;89.30
19279;DHT22;9773;47.062;15.446;2023-02-28T11:09:45;6.10;87.90
19279;DHT22;9773;47.062;15.446;2023-02-28T11:12:34;6.10;87.60
19279;DHT22;9773;47.062;15.446;2023-02-28T11:15:05;6.10;86.80
19279;DHT22;9773;47.062;15.446;2023-02-28T11:17:32;6.10;87.10
19279;DHT22;9773;47.062;15.446;2023-02-28T11:20:06;6.00;88.20
19279;DHT22;9773;47.062;15.446;2023-02-28T11:22:43;6.20;87.90
19279;DHT22;9773;47.062;15.446;2023-02-28T11:27:49;6.20;87.80
19279;DHT22;9773;47.062;15.446;2023-02-28T11:30:28;6.30;87.90
19279;DHT22;9773;47.062;15.446;2023-02-28T11:32:54;6.20;86.90
19279;DHT22;9773;47.062;15.446;2023-02-28T11:35:39;6.10;86.60
19279;DHT22;9773;47.062;15.446;2023-02-28T11:38:10;6.20;87.00
19279;DHT22;9773;47.062;15.446;2023-02-28T11:49:35;6.40;87.40
19279;DHT22;9773;47.062;15.446;2023-02-28T12:00:23;6.50;87.30
19279;DHT22;9773;47.062;15.446;2023-02-28T12:05:45;6.80;86.50
19279;DHT22;9773;47.062;15.446;2023-02-28T12:11:13;6.70;86.80
19279;DHT22;9773;47.062;15.446;2023-02-28T12:17:11;6.70;87.10
19279;DHT22;9773;47.062;15.446;2023-02-28T12:27:45;6.90;86.90
19279;DHT22;9773;47.062;15.446;2023-02-28T12:30:24;6.60;87.70
19279;DHT22;9773;47.062;15.446;2023-02-28T12:33:10;6.60;88.30
19279;DHT22;9773;47.062;15.446;2023-02-28T12:35:54;6.60;88.70
19279;DHT22;9773;47.062;15.446;2023-02-28T12:38:39;6.50;88.70
19279;DHT22;9773;47.062;15.446;2023-02-28T12:41:14;6.70;89.00
19279;DHT22;9773;47.062;15.446;2023-02-28T12:43:50;6.80;88.80
19279;DHT22;9773;47.062;15.446;2023-02-28T12:46:32;6.90;88.10
19279;DHT22;9773;47.062;15.446;2023-02-28T12:49:04;7.00;87.10
19279;DHT22;9773;47.062;15.446;2023-02-28T12:51:31;6.80;87.70
19279;DHT22;9773;47.062;15.446;2023-02-28T12:54:24;6.80;87.60
19279;DHT22;9773;47.062;15.446;2023-02-28T12:57:07;7.00;88.50
19279;DHT22;9773;47.062;15.446;2023-02-28T12:59:50;6.90;86.70
19279;DHT22;9773;47.062;15.446;2023-02-28T13:02:33;6.90;87.60
19279;DHT22;9773;47.062;15.446;2023-02-28T13:10:47;7.10;89.10
19279;DHT22;9773;47.062;15.446;2023-02-28T13:13:23;7.10;87.70
19279;DHT22;9773;47.062;15.446;2023-02-28T13:16:09;6.90;88.20
19279;DHT22;9773;47.062;15.446;2023-02-28T13:18:41;6.90;87.80
19279;DHT22;9773;47.062;15.446;2023-02-28T13:21:10;6.90;89.80
19279;DHT22;9773;47.062;15.446;2023-02-28T13:34:37;7.10;89.60
19279;DHT22;9773;47.062;15.446;2023-02-28T13:39:58;7.00;89.50
19279;DHT22;9773;47.062;15.446;2023-02-28T13:42:34;6.80;89.50
19279;DHT22;9773;47.062;15.446;2023-02-28T13:50:36;7.00;89.80
19279;DHT22;9773;47.062;15.446;2023-02-28T13:56:07;7.00;89.40
19279;DHT22;9773;47.062;15.446;2023-02-28T14:07:05;6.60;89.50
19279;DHT22;9773;47.062;15.446;2023-02-28T14:09:44;6.40;88.50
19279;DHT22;9773;47.062;15.446;2023-02-28T14:18:34;5.90;89.30
19279;DHT22;9773;47.062;15.446;2023-02-28T14:21:16;5.90;90.20
19279;DHT22;9773;47.062;15.446;2023-02-28T14:23:49;5.80;89.50
19279;DHT22;9773;47.062;15.446;2023-02-28T14:32:46;5.60;89.50
19279;DHT22;9773;47.062;15.446;2023-02-28T14:38:29;5.40;90.10
19279;DHT22;9773;47.062;15.446;2023-02-28T14:40:57;5.30;90.20
19279;DHT22;9773;47.062;15.446;2023-02-28T14:43:26;5.40;90.50
19279;DHT22;9773;47.062;15.446;2023-02-28T14:45:58;5.40;90.80
19279;DHT22;9773;47.062;15.446;2023-02-28T14:48:24;5.30;90.80
19279;DHT22;9773;47.062;15.446;2023-02-28T14:50:54;5.30;91.10
19279;DHT22;9773;47.062;15.446;2023-02-28T14:53:23;5.30;91.10
19279;DHT22;9773;47.062;15.446;2023-02-28T14:55:50;5.20;91.00
19279;DHT22;9773;47.062;15.446;2023-02-28T14:58:27;5.30;90.70
19279;DHT22;9773;47.062;15.446;2023-02-28T15:00:55;5.20;90.50
19279;DHT22;9773;47.062;15.446;2023-02-28T15:03:23;5.20;90.90
19279;DHT22;9773;47.062;15.446;2023-02-28T15:05:54;5.30;90.80
19279;DHT22;9773;47.062;15.446;2023-02-28T15:08:21;5.30;90.50
19279;DHT22;9773;47.062;15.446;2023-02-28T15:10:54;5.20;90.90
19279;DHT22;9773;47.062;15.446;2023-02-28T15:13:21;5.20;90.60
19279;DHT22;9773;47.062;15.446;2023-02-28T15:15:55;5.10;90.90
19279;DHT22;9773;47.062;15.446;2023-02-28T15:21:29;5.10;90.60
19279;DHT22;9773;47.062;15.446;2023-02-28T15:26:36;5.00;91.20
19279;DHT22;9773;47.062;15.446;2023-02-28T15:29:15;5.10;91.50
19279;DHT22;9773;47.062;15.446;2023-02-28T15:32:07;5.00;91.20
19279;DHT22;9773;47.062;15.446;2023-02-28T15:34:39;5.10;91.50
19279;DHT22;9773;47.062;15.446;2023-02-28T15:37:46;5.00;91.00
19279;DHT22;9773;47.062;15.446;2023-02-28T15:40:41;5.00;91.30
19279;DHT22;9773;47.062;15.446;2023-02-28T15:43:14;5.10;91.40
19279;DHT22;9773;47.062;15.446;2023-02-28T15:48:23;5.00;91.30
19279;DHT22;9773;47.062;15.446;2023-02-28T15:53:33;5.10;91.40
19279;DHT22;9773;47.062;15.446;2023-02-28T15:56:02;5.10;91.60
19279;DHT22;9773;47.062;15.446;2023-02-28T15:58:29;5.20;91.30
19279;DHT22;9773;47.062;15.446;2023-02-28T16:01:19;5.20;91.50
19279;DHT22;9773;47.062;15.446;2023-02-28T16:03:47;5.10;91.80
19279;DHT22;9773;47.062;15.446;2023-02-28T16:08:46;5.10;91.50
19279;DHT22;9773;47.062;15.446;2023-02-28T16:11:14;5.00;91.70
19279;DHT22;9773;47.062;15.446;2023-02-28T16:13:40;4.90;91.60
19279;DHT22;9773;47.062;15.446;2023-02-28T16:16:06;4.90;92.00
19279;DHT22;9773;47.062;15.446;2023-02-28T16:18:32;4.90;91.90
19279;DHT22;9773;47.062;15.446;2023-02-28T16:20:58;5.00;91.80
19279;DHT22;9773;47.062;15.446;2023-02-28T16:23:24;5.00;92.00
19279;DHT22;9773;47.062;15.446;2023-02-28T16:25:50;4.90;92.00
19279;DHT22;9773;47.062;15.446;2023-02-28T16:28:20;5.00;92.10
19279;DHT22;9773;47.062;15.446;2023-02-28T16:30:51;4.90;92.10
19279;DHT22;9773;47.062;15.446;2023-02-28T16:33:17;4.90;92.20
19279;DHT22;9773;47.062;15.446;2023-02-28T16:35:43;4.90;92.30
19279;DHT22;9773;47.062;15.446;2023-02-28T16:38:09;4.80;92.20
19279;DHT22;9773;47.062;15.446;2023-02-28T16:40:36;4.80;91.80
19279;DHT22;9773;47.062;15.446;2023-02-28T16:43:06;4.70;92.00
19279;DHT22;9773;47.062;15.446;2023-02-28T16:45:33;4.70;91.80
19279;DHT22;9773;47.062;15.446;2023-02-28T16:47:59;4.70;92.30
19279;DHT22;9773;47.062;15.446;2023-02-28T16:50:27;4.80;92.30
19279;DHT22;9773;47.062;15.446;2023-02-28T16:52:55;4.80;92.10
19279;DHT22;9773;47.062;15.446;2023-02-28T16:55:22;4.90;92.40
19279;DHT22;9773;47.062;15.446;2023-02-28T16:57:54;4.90;92.60
19279;DHT22;9773;47.062;15.446;2023-02-28T17:00:21;4.90;92.20
19279;DHT22;9773;47.062;15.446;2023-02-28T17:02:47;4.90;92.40
19279;DHT22;9773;47.062;15.446;2023-02-28T17:05:14;4.90;92.50
19279;DHT22;9773;47.062;15.446;2023-02-28T17:07:41;4.90;92.70
19279;DHT22;9773;47.062;15.446;2023-02-28T17:10:22;4.90;92.50
19279;DHT22;9773;47.062;15.446;2023-02-28T17:12:49;4.90;92.80
19279;DHT22;9773;47.062;15.446;2023-02-28T17:15:17;4.90;92.80
19279;DHT22;9773;47.062;15.446;2023-02-28T17:17:45;4.80;93.00
19279;DHT22;9773;47.062;15.446;2023-02-28T17:20:21;4.80;93.00
19279;DHT22;9773;47.062;15.446;2023-02-28T17:22:53;4.70;93.20
19279;DHT22;9773;47.062;15.446;2023-02-28T17:25:19;4.70;93.20
19279;DHT22;9773;47.062;15.446;2023-02-28T17:27:46;4.70;93.20
19279;DHT22;9773;47.062;15.446;2023-02-28T17:30:16;4.80;93.30
19279;DHT22;9773;47.062;15.446;2023-02-28T17:32:43;4.80;93.30
19279;DHT22;9773;47.062;15.446;2023-02-28T17:35:09;4.70;93.30
19279;DHT22;9773;47.062;15.446;2023-02-28T17:37:36;4.70;93.40
19279;DHT22;9773;47.062;15.446;2023-02-28T17:40:02;4.70;93.30
19279;DHT22;9773;47.062;15.446;2023-02-28T17:42:28;4.70;93.50
19279;DHT22;9773;47.062;15.446;2023-02-28T17:44:54;4.70;93.40
19279;DHT22;9773;47.062;15.446;2023-02-28T17:47:20;4.70;93.40
19279;DHT22;9773;47.062;15.446;2023-02-28T17:49:46;4.70;93.20
19279;DHT22;9773;47.062;15.446;2023-02-28T17:52:12;4.70;93.40
19279;DHT22;9773;47.062;15.446;2023-02-28T17:54:38;4.70;93.70
19279;DHT22;9773;47.062;15.446;2023-02-28T17:57:04;4.60;93.40
19279;DHT22;9773;47.062;15.446;2023-02-28T17:59:31;4.70;93.60
19279;DHT22;9773;47.062;15.446;2023-02-28T18:02:02;4.70;93.50
19279;DHT22;9773;47.062;15.446;2023-02-28T18:04:29;4.70;93.60
19279;DHT22;9773;47.062;15.446;2023-02-28T18:06:55;4.60;93.70
19279;DHT22;9773;47.062;15.446;2023-02-28T18:09:26;4.60;93.60
19279;DHT22;9773;47.062;15.446;2023-02-28T18:11:54;4.60;93.80
19279;DHT22;9773;47.062;15.446;2023-02-28T18:14:22;4.70;93.60
19279;DHT22;9773;47.062;15.446;2023-02-28T18:16:50;4.70;93.70
19279;DHT22;9773;47.062;15.446;2023-02-28T18:19:16;4.70;93.50